Decoded Metar for LFLY (LYON BRON in FRANCE) (IATA:LYN) | Meteo·Mobile Aviation Weather
aviador You're here:

LFLY Decoded Metar

LYON BRON in FRANCE
Report Time2018-08-22 05:30:00
UTC Time2018-08-22 05:36:07
Flight Rules vfr VFR
WindCalm
Visibility9999 m
Phenomena:N/A
Clouds:N/A
Expected CloudBase > 1,600 ft AGL from Temp-Dew spread
CeilingNone
Temp19°C (ISA +5)
Dew Point15°C (78% RH)
QNH1017 hPa
Density Alt1,375 ft
Elevation659 ft
Report Wrong Elevation
Raw Report
METAR LFLY 220530Z AUTO 00000KT CAVOK 19/15 Q1017 NOSIG=

Extra information for LFLY:More info

Metar Taf Metar & Taf Last 4 Metars F.Rules Stats Wind Profile Meteogram Temp Stats Airport Information Weather charts Add Link Nearby VenuesMetar ALERT Operation Metar Decoded Social comments